sensor_id;sensor_type;location;lat;lon;timestamp;P1;durP1;ratioP1;P2;durP2;ratioP2
1446;SDS011;717;51.522;7.266;2022-10-17T00:00:46;4.80;;;4.40;;
1446;SDS011;717;51.522;7.266;2022-10-17T00:03:14;4.93;;;4.53;;
1446;SDS011;717;51.522;7.266;2022-10-17T00:05:41;5.20;;;4.63;;
1446;SDS011;717;51.522;7.266;2022-10-17T00:08:09;5.00;;;4.60;;
1446;SDS011;717;51.522;7.266;2022-10-17T00:10:37;5.25;;;4.70;;
1446;SDS011;717;51.522;7.266;2022-10-17T00:13:05;5.05;;;4.55;;
1446;SDS011;717;51.522;7.266;2022-10-17T00:15:34;5.50;;;4.65;;
1446;SDS011;717;51.522;7.266;2022-10-17T00:18:01;5.32;;;4.70;;
1446;SDS011;717;51.522;7.266;2022-10-17T00:20:29;5.63;;;5.05;;
1446;SDS011;717;51.522;7.266;2022-10-17T00:22:56;5.35;;;4.95;;
1446;SDS011;717;51.522;7.266;2022-10-17T00:25:24;5.25;;;4.55;;
1446;SDS011;717;51.522;7.266;2022-10-17T00:27:51;5.50;;;4.97;;
1446;SDS011;717;51.522;7.266;2022-10-17T00:30:18;5.10;;;4.55;;
1446;SDS011;717;51.522;7.266;2022-10-17T00:32:47;5.72;;;5.05;;
1446;SDS011;717;51.522;7.266;2022-10-17T00:35:14;5.78;;;5.10;;
1446;SDS011;717;51.522;7.266;2022-10-17T00:37:41;5.38;;;4.93;;
1446;SDS011;717;51.522;7.266;2022-10-17T00:40:09;8.30;;;5.05;;
1446;SDS011;717;51.522;7.266;2022-10-17T00:42:36;6.53;;;4.70;;
1446;SDS011;717;51.522;7.266;2022-10-17T00:45:06;5.55;;;4.78;;
1446;SDS011;717;51.522;7.266;2022-10-17T00:47:42;6.75;;;4.85;;
1446;SDS011;717;51.522;7.266;2022-10-17T00:50:13;6.85;;;4.88;;
1446;SDS011;717;51.522;7.266;2022-10-17T00:52:41;6.22;;;4.60;;
1446;SDS011;717;51.522;7.266;2022-10-17T00:55:10;5.95;;;4.43;;
1446;SDS011;717;51.522;7.266;2022-10-17T00:57:40;6.68;;;4.97;;
1446;SDS011;717;51.522;7.266;2022-10-17T01:00:09;5.43;;;4.93;;
1446;SDS011;717;51.522;7.266;2022-10-17T01:02:36;6.88;;;4.65;;
1446;SDS011;717;51.522;7.266;2022-10-17T01:05:05;4.97;;;4.53;;
1446;SDS011;717;51.522;7.266;2022-10-17T01:07:33;5.13;;;4.40;;
1446;SDS011;717;51.522;7.266;2022-10-17T01:10:00;4.40;;;4.10;;
1446;SDS011;717;51.522;7.266;2022-10-17T01:12:31;5.47;;;4.88;;
1446;SDS011;717;51.522;7.266;2022-10-17T01:15:08;5.38;;;4.63;;
1446;SDS011;717;51.522;7.266;2022-10-17T01:17:45;5.40;;;4.90;;
1446;SDS011;717;51.522;7.266;2022-10-17T01:20:28;5.20;;;4.70;;
1446;SDS011;717;51.522;7.266;2022-10-17T01:23:27;6.03;;;4.57;;
1446;SDS011;717;51.522;7.266;2022-10-17T01:26:10;6.50;;;4.97;;
1446;SDS011;717;51.522;7.266;2022-10-17T01:28:51;6.07;;;5.03;;
1446;SDS011;717;51.522;7.266;2022-10-17T01:31:33;4.97;;;4.57;;
1446;SDS011;717;51.522;7.266;2022-10-17T01:34:03;6.60;;;4.80;;
1446;SDS011;717;51.522;7.266;2022-10-17T01:36:36;5.40;;;4.90;;
1446;SDS011;717;51.522;7.266;2022-10-17T01:39:13;5.20;;;4.68;;
1446;SDS011;717;51.522;7.266;2022-10-17T01:41:46;5.30;;;4.90;;
1446;SDS011;717;51.522;7.266;2022-10-17T01:44:19;4.88;;;4.50;;
1446;SDS011;717;51.522;7.266;2022-10-17T01:46:55;5.72;;;4.88;;
1446;SDS011;717;51.522;7.266;2022-10-17T01:49:25;4.82;;;4.43;;
1446;SDS011;717;51.522;7.266;2022-10-17T01:51:57;6.90;;;4.38;;
1446;SDS011;717;51.522;7.266;2022-10-17T01:54:29;5.97;;;4.20;;
1446;SDS011;717;51.522;7.266;2022-10-17T01:56:59;5.15;;;4.65;;
1446;SDS011;717;51.522;7.266;2022-10-17T01:59:33;5.57;;;4.40;;
1446;SDS011;717;51.522;7.266;2022-10-17T02:02:05;6.45;;;4.50;;
1446;SDS011;717;51.522;7.266;2022-10-17T02:04:34;4.75;;;4.22;;
1446;SDS011;717;51.522;7.266;2022-10-17T02:07:05;5.68;;;5.15;;
1446;SDS011;717;51.522;7.266;2022-10-17T02:09:32;4.80;;;4.28;;
1446;SDS011;717;51.522;7.266;2022-10-17T02:12:08;4.93;;;4.35;;
1446;SDS011;717;51.522;7.266;2022-10-17T02:14:49;5.32;;;4.22;;
1446;SDS011;717;51.522;7.266;2022-10-17T02:17:29;5.93;;;4.38;;
1446;SDS011;717;51.522;7.266;2022-10-17T02:20:07;6.05;;;4.40;;
1446;SDS011;717;51.522;7.266;2022-10-17T02:22:39;4.32;;;3.92;;
1446;SDS011;717;51.522;7.266;2022-10-17T02:25:11;6.20;;;4.20;;
1446;SDS011;717;51.522;7.266;2022-10-17T02:27:45;4.93;;;3.97;;
1446;SDS011;717;51.522;7.266;2022-10-17T02:30:19;4.82;;;4.18;;
1446;SDS011;717;51.522;7.266;2022-10-17T02:32:56;4.65;;;3.92;;
1446;SDS011;717;51.522;7.266;2022-10-17T02:35:26;5.85;;;4.55;;
1446;SDS011;717;51.522;7.266;2022-10-17T02:37:56;5.47;;;4.30;;
1446;SDS011;717;51.522;7.266;2022-10-17T02:40:25;8.15;;;4.78;;
1446;SDS011;717;51.522;7.266;2022-10-17T02:42:55;5.63;;;4.43;;
1446;SDS011;717;51.522;7.266;2022-10-17T02:45:25;5.05;;;4.53;;
1446;SDS011;717;51.522;7.266;2022-10-17T02:47:56;7.97;;;4.68;;
1446;SDS011;717;51.522;7.266;2022-10-17T02:50:26;4.60;;;4.20;;
1446;SDS011;717;51.522;7.266;2022-10-17T02:53:02;6.72;;;4.70;;
1446;SDS011;717;51.522;7.266;2022-10-17T02:55:35;4.75;;;4.25;;
1446;SDS011;717;51.522;7.266;2022-10-17T02:58:06;4.82;;;4.35;;
1446;SDS011;717;51.522;7.266;2022-10-17T03:00:38;5.85;;;3.97;;
1446;SDS011;717;51.522;7.266;2022-10-17T03:03:18;4.68;;;4.13;;
1446;SDS011;717;51.522;7.266;2022-10-17T03:05:47;4.55;;;4.15;;
1446;SDS011;717;51.522;7.266;2022-10-17T03:08:14;5.15;;;3.72;;
1446;SDS011;717;51.522;7.266;2022-10-17T03:10:40;5.22;;;4.18;;
1446;SDS011;717;51.522;7.266;2022-10-17T03:13:07;6.80;;;3.80;;
1446;SDS011;717;51.522;7.266;2022-10-17T03:15:34;5.15;;;4.20;;
1446;SDS011;717;51.522;7.266;2022-10-17T03:18:01;6.28;;;4.22;;
1446;SDS011;717;51.522;7.266;2022-10-17T03:20:29;4.32;;;3.92;;
1446;SDS011;717;51.522;7.266;2022-10-17T03:22:56;5.00;;;3.88;;
1446;SDS011;717;51.522;7.266;2022-10-17T03:25:23;5.13;;;3.97;;
1446;SDS011;717;51.522;7.266;2022-10-17T03:27:50;4.68;;;4.10;;
1446;SDS011;717;51.522;7.266;2022-10-17T03:30:17;4.47;;;3.85;;
1446;SDS011;717;51.522;7.266;2022-10-17T03:32:44;5.90;;;4.15;;
1446;SDS011;717;51.522;7.266;2022-10-17T03:35:12;5.00;;;4.18;;
1446;SDS011;717;51.522;7.266;2022-10-17T03:37:40;5.47;;;4.07;;
1446;SDS011;717;51.522;7.266;2022-10-17T03:40:07;5.50;;;3.92;;
1446;SDS011;717;51.522;7.266;2022-10-17T03:42:34;4.38;;;3.95;;
1446;SDS011;717;51.522;7.266;2022-10-17T03:45:02;6.25;;;4.00;;
1446;SDS011;717;51.522;7.266;2022-10-17T03:47:29;5.32;;;3.85;;
1446;SDS011;717;51.522;7.266;2022-10-17T03:49:56;4.15;;;3.85;;
1446;SDS011;717;51.522;7.266;2022-10-17T03:52:23;4.30;;;3.90;;
1446;SDS011;717;51.522;7.266;2022-10-17T03:54:51;4.55;;;3.75;;
1446;SDS011;717;51.522;7.266;2022-10-17T03:57:18;4.95;;;3.65;;
1446;SDS011;717;51.522;7.266;2022-10-17T03:59:45;5.13;;;3.45;;
1446;SDS011;717;51.522;7.266;2022-10-17T04:02:12;4.35;;;3.78;;
1446;SDS011;717;51.522;7.266;2022-10-17T04:04:39;4.18;;;3.70;;
1446;SDS011;717;51.522;7.266;2022-10-17T04:07:06;4.88;;;4.18;;
1446;SDS011;717;51.522;7.266;2022-10-17T04:09:32;4.07;;;3.67;;
1446;SDS011;717;51.522;7.266;2022-10-17T04:12:01;5.10;;;3.80;;
1446;SDS011;717;51.522;7.266;2022-10-17T04:14:28;5.82;;;3.70;;
1446;SDS011;717;51.522;7.266;2022-10-17T04:16:55;4.43;;;3.50;;
1446;SDS011;717;51.522;7.266;2022-10-17T04:19:22;6.18;;;3.95;;
1446;SDS011;717;51.522;7.266;2022-10-17T04:21:49;4.50;;;3.53;;
1446;SDS011;717;51.522;7.266;2022-10-17T04:24:16;5.32;;;3.60;;
1446;SDS011;717;51.522;7.266;2022-10-17T04:26:43;3.83;;;3.45;;
1446;SDS011;717;51.522;7.266;2022-10-17T04:29:11;4.43;;;3.50;;
1446;SDS011;717;51.522;7.266;2022-10-17T04:31:39;3.97;;;3.53;;
1446;SDS011;717;51.522;7.266;2022-10-17T04:34:06;4.53;;;3.47;;
1446;SDS011;717;51.522;7.266;2022-10-17T04:36:33;5.50;;;3.47;;
1446;SDS011;717;51.522;7.266;2022-10-17T04:39:00;4.55;;;3.50;;
1446;SDS011;717;51.522;7.266;2022-10-17T04:41:27;4.60;;;4.20;;
1446;SDS011;717;51.522;7.266;2022-10-17T04:43:54;5.40;;;3.30;;
1446;SDS011;717;51.522;7.266;2022-10-17T04:46:23;4.68;;;3.90;;
1446;SDS011;717;51.522;7.266;2022-10-17T04:48:52;4.57;;;3.47;;
1446;SDS011;717;51.522;7.266;2022-10-17T04:51:19;4.30;;;3.55;;
1446;SDS011;717;51.522;7.266;2022-10-17T04:53:46;3.88;;;3.50;;
1446;SDS011;717;51.522;7.266;2022-10-17T04:56:14;4.28;;;3.33;;
1446;SDS011;717;51.522;7.266;2022-10-17T04:58:42;5.25;;;3.35;;
1446;SDS011;717;51.522;7.266;2022-10-17T05:01:11;4.18;;;3.78;;
1446;SDS011;717;51.522;7.266;2022-10-17T05:03:40;5.70;;;3.53;;
1446;SDS011;717;51.522;7.266;2022-10-17T05:06:08;4.47;;;2.90;;
1446;SDS011;717;51.522;7.266;2022-10-17T05:08:36;3.70;;;3.40;;
1446;SDS011;717;51.522;7.266;2022-10-17T05:11:03;5.00;;;3.55;;
1446;SDS011;717;51.522;7.266;2022-10-17T05:13:31;4.10;;;3.67;;
1446;SDS011;717;51.522;7.266;2022-10-17T05:15:58;3.75;;;3.40;;
1446;SDS011;717;51.522;7.266;2022-10-17T05:18:25;4.88;;;3.33;;
1446;SDS011;717;51.522;7.266;2022-10-17T05:20:54;4.65;;;3.20;;
1446;SDS011;717;51.522;7.266;2022-10-17T05:23:21;4.60;;;3.70;;
1446;SDS011;717;51.522;7.266;2022-10-17T05:25:52;3.97;;;3.30;;
1446;SDS011;717;51.522;7.266;2022-10-17T05:28:20;5.57;;;3.40;;
1446;SDS011;717;51.522;7.266;2022-10-17T05:30:47;5.22;;;3.42;;
1446;SDS011;717;51.522;7.266;2022-10-17T05:33:14;3.42;;;3.13;;
1446;SDS011;717;51.522;7.266;2022-10-17T05:35:41;4.50;;;3.60;;
1446;SDS011;717;51.522;7.266;2022-10-17T05:38:10;4.72;;;3.80;;
1446;SDS011;717;51.522;7.266;2022-10-17T05:40:37;3.85;;;2.95;;
1446;SDS011;717;51.522;7.266;2022-10-17T05:43:03;4.85;;;3.75;;
1446;SDS011;717;51.522;7.266;2022-10-17T05:45:30;4.70;;;3.25;;
1446;SDS011;717;51.522;7.266;2022-10-17T05:47:57;4.93;;;3.50;;
1446;SDS011;717;51.522;7.266;2022-10-17T05:50:24;3.80;;;3.20;;
1446;SDS011;717;51.522;7.266;2022-10-17T05:52:51;4.45;;;3.60;;
1446;SDS011;717;51.522;7.266;2022-10-17T05:55:20;5.15;;;3.55;;
1446;SDS011;717;51.522;7.266;2022-10-17T05:57:47;4.80;;;3.28;;
1446;SDS011;717;51.522;7.266;2022-10-17T06:00:16;3.25;;;2.95;;
1446;SDS011;717;51.522;7.266;2022-10-17T06:02:44;3.65;;;3.22;;
1446;SDS011;717;51.522;7.266;2022-10-17T06:05:11;3.67;;;2.90;;
1446;SDS011;717;51.522;7.266;2022-10-17T06:07:38;5.10;;;3.58;;
1446;SDS011;717;51.522;7.266;2022-10-17T06:10:05;4.43;;;3.10;;
1446;SDS011;717;51.522;7.266;2022-10-17T06:12:34;4.25;;;3.75;;
1446;SDS011;717;51.522;7.266;2022-10-17T06:15:01;5.25;;;3.28;;
1446;SDS011;717;51.522;7.266;2022-10-17T06:17:27;4.40;;;3.40;;
1446;SDS011;717;51.522;7.266;2022-10-17T06:19:54;4.32;;;3.40;;
1446;SDS011;717;51.522;7.266;2022-10-17T06:22:22;6.93;;;3.35;;
1446;SDS011;717;51.522;7.266;2022-10-17T06:24:48;4.53;;;3.20;;
1446;SDS011;717;51.522;7.266;2022-10-17T06:27:16;6.13;;;3.78;;
1446;SDS011;717;51.522;7.266;2022-10-17T06:29:44;7.03;;;3.67;;
1446;SDS011;717;51.522;7.266;2022-10-17T06:32:12;4.43;;;3.40;;
1446;SDS011;717;51.522;7.266;2022-10-17T06:34:39;4.93;;;3.17;;
1446;SDS011;717;51.522;7.266;2022-10-17T06:37:06;3.38;;;2.83;;
1446;SDS011;717;51.522;7.266;2022-10-17T06:39:33;5.85;;;3.60;;
1446;SDS011;717;51.522;7.266;2022-10-17T06:42:00;4.07;;;2.85;;
1446;SDS011;717;51.522;7.266;2022-10-17T06:44:27;4.57;;;3.10;;
1446;SDS011;717;51.522;7.266;2022-10-17T06:46:57;4.72;;;3.10;;
1446;SDS011;717;51.522;7.266;2022-10-17T06:49:24;5.32;;;3.10;;
1446;SDS011;717;51.522;7.266;2022-10-17T06:51:51;5.95;;;3.10;;
1446;SDS011;717;51.522;7.266;2022-10-17T06:54:18;5.93;;;3.58;;
1446;SDS011;717;51.522;7.266;2022-10-17T06:56:45;4.18;;;2.95;;
1446;SDS011;717;51.522;7.266;2022-10-17T06:59:12;5.35;;;3.47;;
1446;SDS011;717;51.522;7.266;2022-10-17T07:01:39;3.72;;;3.25;;
1446;SDS011;717;51.522;7.266;2022-10-17T07:04:08;3.55;;;3.20;;
1446;SDS011;717;51.522;7.266;2022-10-17T07:06:34;4.47;;;3.10;;
1446;SDS011;717;51.522;7.266;2022-10-17T07:09:02;4.22;;;2.70;;
1446;SDS011;717;51.522;7.266;2022-10-17T07:11:31;5.05;;;3.58;;
1446;SDS011;717;51.522;7.266;2022-10-17T07:13:59;5.40;;;3.40;;
1446;SDS011;717;51.522;7.266;2022-10-17T07:16:26;7.05;;;3.72;;
1446;SDS011;717;51.522;7.266;2022-10-17T07:18:53;7.03;;;2.97;;
1446;SDS011;717;51.522;7.266;2022-10-17T07:21:22;4.15;;;3.35;;
1446;SDS011;717;51.522;7.266;2022-10-17T07:23:49;4.47;;;2.92;;
1446;SDS011;717;51.522;7.266;2022-10-17T07:26:16;4.90;;;3.47;;
1446;SDS011;717;51.522;7.266;2022-10-17T07:28:44;4.60;;;3.40;;
1446;SDS011;717;51.522;7.266;2022-10-17T07:31:13;4.45;;;3.22;;
1446;SDS011;717;51.522;7.266;2022-10-17T07:33:42;3.67;;;3.10;;
1446;SDS011;717;51.522;7.266;2022-10-17T07:36:10;4.45;;;3.03;;
1446;SDS011;717;51.522;7.266;2022-10-17T07:38:39;4.35;;;3.03;;
1446;SDS011;717;51.522;7.266;2022-10-17T07:41:07;3.58;;;3.13;;
1446;SDS011;717;51.522;7.266;2022-10-17T07:43:36;4.75;;;3.33;;
1446;SDS011;717;51.522;7.266;2022-10-17T07:46:03;4.60;;;3.17;;
1446;SDS011;717;51.522;7.266;2022-10-17T07:48:32;4.13;;;2.80;;
1446;SDS011;717;51.522;7.266;2022-10-17T07:51:00;5.90;;;3.17;;
1446;SDS011;717;51.522;7.266;2022-10-17T07:53:27;4.22;;;2.95;;
1446;SDS011;717;51.522;7.266;2022-10-17T07:55:56;3.20;;;2.90;;
1446;SDS011;717;51.522;7.266;2022-10-17T07:58:23;4.47;;;3.17;;
1446;SDS011;717;51.522;7.266;2022-10-17T08:00:50;4.30;;;3.10;;
1446;SDS011;717;51.522;7.266;2022-10-17T08:03:17;4.38;;;3.17;;
1446;SDS011;717;51.522;7.266;2022-10-17T08:05:43;5.88;;;3.15;;
1446;SDS011;717;51.522;7.266;2022-10-17T08:08:10;3.20;;;2.90;;
1446;SDS011;717;51.522;7.266;2022-10-17T08:10:37;3.55;;;3.25;;
1446;SDS011;717;51.522;7.266;2022-10-17T08:13:05;4.20;;;2.85;;
1446;SDS011;717;51.522;7.266;2022-10-17T08:15:32;4.88;;;2.90;;
1446;SDS011;717;51.522;7.266;2022-10-17T08:17:59;4.00;;;3.03;;
1446;SDS011;717;51.522;7.266;2022-10-17T08:20:26;3.67;;;2.92;;
1446;SDS011;717;51.522;7.266;2022-10-17T08:22:53;8.25;;;7.45;;
1446;SDS011;717;51.522;7.266;2022-10-17T08:25:21;5.43;;;3.25;;
1446;SDS011;717;51.522;7.266;2022-10-17T08:27:48;6.93;;;2.95;;
1446;SDS011;717;51.522;7.266;2022-10-17T08:30:16;4.15;;;3.00;;
1446;SDS011;717;51.522;7.266;2022-10-17T08:32:43;3.13;;;2.83;;
1446;SDS011;717;51.522;7.266;2022-10-17T08:35:10;4.47;;;3.10;;
1446;SDS011;717;51.522;7.266;2022-10-17T08:37:38;4.35;;;2.88;;
1446;SDS011;717;51.522;7.266;2022-10-17T08:40:06;3.13;;;2.60;;
1446;SDS011;717;51.522;7.266;2022-10-17T08:42:41;4.57;;;2.58;;
1446;SDS011;717;51.522;7.266;2022-10-17T08:45:26;3.80;;;3.03;;
1446;SDS011;717;51.522;7.266;2022-10-17T08:47:58;3.53;;;2.58;;
1446;SDS011;717;51.522;7.266;2022-10-17T08:50:28;3.60;;;2.70;;
1446;SDS011;717;51.522;7.266;2022-10-17T08:53:01;4.47;;;2.40;;
1446;SDS011;717;51.522;7.266;2022-10-17T08:55:33;6.78;;;2.58;;
1446;SDS011;717;51.522;7.266;2022-10-17T08:58:04;3.05;;;2.35;;
1446;SDS011;717;51.522;7.266;2022-10-17T09:00:39;3.33;;;3.00;;
1446;SDS011;717;51.522;7.266;2022-10-17T09:03:13;6.03;;;2.90;;
1446;SDS011;717;51.522;7.266;2022-10-17T09:05:55;3.25;;;2.50;;
1446;SDS011;717;51.522;7.266;2022-10-17T09:08:35;4.15;;;2.80;;
1446;SDS011;717;51.522;7.266;2022-10-17T09:11:13;3.40;;;2.22;;
1446;SDS011;717;51.522;7.266;2022-10-17T09:13:49;4.95;;;2.90;;
1446;SDS011;717;51.522;7.266;2022-10-17T09:16:31;5.68;;;3.20;;
1446;SDS011;717;51.522;7.266;2022-10-17T09:19:09;3.72;;;2.58;;
1446;SDS011;717;51.522;7.266;2022-10-17T09:21:41;6.65;;;3.20;;
1446;SDS011;717;51.522;7.266;2022-10-17T09:24:12;3.17;;;2.60;;
1446;SDS011;717;51.522;7.266;2022-10-17T09:26:43;5.25;;;2.60;;
1446;SDS011;717;51.522;7.266;2022-10-17T09:29:14;4.45;;;2.92;;
1446;SDS011;717;51.522;7.266;2022-10-17T09:31:46;3.85;;;2.50;;
1446;SDS011;717;51.522;7.266;2022-10-17T09:34:17;3.33;;;2.65;;
1446;SDS011;717;51.522;7.266;2022-10-17T09:36:44;3.20;;;2.30;;
1446;SDS011;717;51.522;7.266;2022-10-17T09:39:11;4.70;;;2.40;;
1446;SDS011;717;51.522;7.266;2022-10-17T09:41:40;12.63;;;11.38;;
1446;SDS011;717;51.522;7.266;2022-10-17T09:44:17;5.35;;;3.15;;
1446;SDS011;717;51.522;7.266;2022-10-17T09:46:51;5.45;;;2.55;;
1446;SDS011;717;51.522;7.266;2022-10-17T09:49:28;3.67;;;2.70;;
1446;SDS011;717;51.522;7.266;2022-10-17T09:51:58;4.30;;;2.30;;
1446;SDS011;717;51.522;7.266;2022-10-17T09:54:26;3.85;;;2.53;;
1446;SDS011;717;51.522;7.266;2022-10-17T09:56:59;2.90;;;2.50;;
1446;SDS011;717;51.522;7.266;2022-10-17T09:59:31;4.50;;;2.30;;
1446;SDS011;717;51.522;7.266;2022-10-17T10:02:15;5.65;;;2.20;;
1446;SDS011;717;51.522;7.266;2022-10-17T10:04:53;3.53;;;2.38;;
1446;SDS011;717;51.522;7.266;2022-10-17T10:07:25;2.95;;;2.47;;
1446;SDS011;717;51.522;7.266;2022-10-17T10:09:54;6.10;;;2.20;;
1446;SDS011;717;51.522;7.266;2022-10-17T10:12:23;5.90;;;2.58;;
1446;SDS011;717;51.522;7.266;2022-10-17T10:14:52;3.05;;;2.60;;
1446;SDS011;717;51.522;7.266;2022-10-17T10:17:28;3.65;;;2.03;;
1446;SDS011;717;51.522;7.266;2022-10-17T10:20:00;6.00;;;2.78;;
1446;SDS011;717;51.522;7.266;2022-10-17T10:22:29;3.80;;;2.40;;
1446;SDS011;717;51.522;7.266;2022-10-17T10:25:06;3.13;;;2.25;;
1446;SDS011;717;51.522;7.266;2022-10-17T10:27:36;3.05;;;2.22;;
1446;SDS011;717;51.522;7.266;2022-10-17T10:30:05;4.47;;;2.42;;
1446;SDS011;717;51.522;7.266;2022-10-17T10:32:43;3.88;;;2.67;;
1446;SDS011;717;51.522;7.266;2022-10-17T10:35:17;2.45;;;2.25;;
1446;SDS011;717;51.522;7.266;2022-10-17T10:37:48;4.00;;;2.50;;
1446;SDS011;717;51.522;7.266;2022-10-17T10:40:18;7.50;;;2.45;;
1446;SDS011;717;51.522;7.266;2022-10-17T10:42:49;3.92;;;2.70;;
1446;SDS011;717;51.522;7.266;2022-10-17T10:45:18;2.75;;;2.10;;
1446;SDS011;717;51.522;7.266;2022-10-17T10:47:52;2.92;;;2.10;;
1446;SDS011;717;51.522;7.266;2022-10-17T10:50:25;6.47;;;2.30;;
1446;SDS011;717;51.522;7.266;2022-10-17T10:52:57;3.35;;;2.50;;
1446;SDS011;717;51.522;7.266;2022-10-17T10:55:36;5.00;;;2.30;;
1446;SDS011;717;51.522;7.266;2022-10-17T10:58:12;4.93;;;2.40;;
1446;SDS011;717;51.522;7.266;2022-10-17T11:00:48;4.90;;;2.33;;
1446;SDS011;717;51.522;7.266;2022-10-17T11:03:18;3.13;;;2.35;;
1446;SDS011;717;51.522;7.266;2022-10-17T11:05:51;3.03;;;2.15;;
1446;SDS011;717;51.522;7.266;2022-10-17T11:08:22;5.70;;;2.63;;
1446;SDS011;717;51.522;7.266;2022-10-17T11:11:03;4.63;;;2.47;;
1446;SDS011;717;51.522;7.266;2022-10-17T11:13:42;7.90;;;2.42;;
1446;SDS011;717;51.522;7.266;2022-10-17T11:16:17;4.25;;;2.30;;
1446;SDS011;717;51.522;7.266;2022-10-17T11:18:54;4.03;;;2.35;;
1446;SDS011;717;51.522;7.266;2022-10-17T11:21:26;3.47;;;2.30;;
1446;SDS011;717;51.522;7.266;2022-10-17T11:24:02;7.65;;;2.90;;
1446;SDS011;717;51.522;7.266;2022-10-17T11:26:39;3.42;;;2.40;;
1446;SDS011;717;51.522;7.266;2022-10-17T11:29:09;2.90;;;2.47;;
1446;SDS011;717;51.522;7.266;2022-10-17T11:31:39;2.55;;;2.35;;
1446;SDS011;717;51.522;7.266;2022-10-17T11:34:14;3.55;;;2.42;;
1446;SDS011;717;51.522;7.266;2022-10-17T11:36:46;4.68;;;2.53;;
1446;SDS011;717;51.522;7.266;2022-10-17T11:39:18;8.07;;;3.00;;
1446;SDS011;717;51.522;7.266;2022-10-17T11:41:50;5.68;;;2.50;;
1446;SDS011;717;51.522;7.266;2022-10-17T11:44:19;4.63;;;2.78;;
1446;SDS011;717;51.522;7.266;2022-10-17T11:46:51;6.75;;;2.50;;
1446;SDS011;717;51.522;7.266;2022-10-17T11:49:26;6.18;;;2.53;;
1446;SDS011;717;51.522;7.266;2022-10-17T11:51:59;3.00;;;2.47;;
1446;SDS011;717;51.522;7.266;2022-10-17T11:54:36;3.25;;;2.40;;
1446;SDS011;717;51.522;7.266;2022-10-17T11:57:10;4.15;;;2.47;;
1446;SDS011;717;51.522;7.266;2022-10-17T11:59:56;6.05;;;2.58;;
1446;SDS011;717;51.522;7.266;2022-10-17T12:02:34;3.10;;;2.60;;
1446;SDS011;717;51.522;7.266;2022-10-17T12:05:11;2.90;;;2.53;;
1446;SDS011;717;51.522;7.266;2022-10-17T12:07:49;2.55;;;2.28;;
1446;SDS011;717;51.522;7.266;2022-10-17T12:10:24;4.40;;;2.38;;
1446;SDS011;717;51.522;7.266;2022-10-17T12:21:55;5.97;;;2.45;;
1446;SDS011;717;51.522;7.266;2022-10-17T12:24:28;3.97;;;2.50;;
1446;SDS011;717;51.522;7.266;2022-10-17T12:29:49;4.78;;;2.20;;
1446;SDS011;717;51.522;7.266;2022-10-17T12:32:23;4.68;;;2.50;;
1446;SDS011;717;51.522;7.266;2022-10-17T12:34:50;5.72;;;2.80;;
1446;SDS011;717;51.522;7.266;2022-10-17T12:43:42;3.20;;;2.88;;
1446;SDS011;717;51.522;7.266;2022-10-17T12:46:40;3.00;;;2.55;;
1446;SDS011;717;51.522;7.266;2022-10-17T12:49:19;4.88;;;2.47;;
1446;SDS011;717;51.522;7.266;2022-10-17T12:52:04;4.22;;;2.83;;
1446;SDS011;717;51.522;7.266;2022-10-17T12:54:48;5.47;;;2.70;;
1446;SDS011;717;51.522;7.266;2022-10-17T12:57:20;5.70;;;2.95;;
1446;SDS011;717;51.522;7.266;2022-10-17T12:59:50;5.72;;;2.78;;
1446;SDS011;717;51.522;7.266;2022-10-17T13:02:19;4.45;;;2.67;;
1446;SDS011;717;51.522;7.266;2022-10-17T13:04:49;3.60;;;2.78;;
1446;SDS011;717;51.522;7.266;2022-10-17T13:07:28;6.70;;;2.70;;
1446;SDS011;717;51.522;7.266;2022-10-17T13:09:56;3.67;;;2.50;;
1446;SDS011;717;51.522;7.266;2022-10-17T13:12:28;4.13;;;2.75;;
1446;SDS011;717;51.522;7.266;2022-10-17T13:14:58;5.15;;;2.50;;
1446;SDS011;717;51.522;7.266;2022-10-17T13:17:26;3.63;;;2.65;;
1446;SDS011;717;51.522;7.266;2022-10-17T13:19:55;6.05;;;2.90;;
1446;SDS011;717;51.522;7.266;2022-10-17T13:22:23;6.70;;;2.70;;
1446;SDS011;717;51.522;7.266;2022-10-17T13:24:52;3.97;;;2.55;;
1446;SDS011;717;51.522;7.266;2022-10-17T13:27:33;3.42;;;3.00;;
1446;SDS011;717;51.522;7.266;2022-10-17T13:30:16;2.72;;;2.53;;
1446;SDS011;717;51.522;7.266;2022-10-17T13:32:48;4.05;;;2.85;;
1446;SDS011;717;51.522;7.266;2022-10-17T13:35:16;4.80;;;2.88;;
1446;SDS011;717;51.522;7.266;2022-10-17T13:37:49;5.93;;;3.13;;
1446;SDS011;717;51.522;7.266;2022-10-17T13:40:17;6.63;;;3.03;;
1446;SDS011;717;51.522;7.266;2022-10-17T13:42:46;4.60;;;3.00;;
1446;SDS011;717;51.522;7.266;2022-10-17T13:45:16;5.65;;;2.95;;
1446;SDS011;717;51.522;7.266;2022-10-17T13:47:45;4.75;;;3.30;;
1446;SDS011;717;51.522;7.266;2022-10-17T13:50:15;6.22;;;3.58;;
1446;SDS011;717;51.522;7.266;2022-10-17T13:52:46;6.65;;;3.13;;
1446;SDS011;717;51.522;7.266;2022-10-17T13:55:14;3.72;;;3.20;;
1446;SDS011;717;51.522;7.266;2022-10-17T13:57:44;6.68;;;3.90;;
1446;SDS011;717;51.522;7.266;2022-10-17T14:00:16;5.78;;;3.53;;
1446;SDS011;717;51.522;7.266;2022-10-17T14:02:45;4.93;;;3.38;;
1446;SDS011;717;51.522;7.266;2022-10-17T14:05:14;5.05;;;3.15;;
1446;SDS011;717;51.522;7.266;2022-10-17T14:07:42;3.75;;;3.17;;
1446;SDS011;717;51.522;7.266;2022-10-17T14:10:18;5.03;;;3.25;;
1446;SDS011;717;51.522;7.266;2022-10-17T14:12:47;5.50;;;3.45;;
1446;SDS011;717;51.522;7.266;2022-10-17T14:15:16;6.78;;;3.33;;
1446;SDS011;717;51.522;7.266;2022-10-17T14:17:44;6.25;;;3.63;;
1446;SDS011;717;51.522;7.266;2022-10-17T14:20:16;4.72;;;3.45;;
1446;SDS011;717;51.522;7.266;2022-10-17T14:22:44;6.43;;;3.38;;
1446;SDS011;717;51.522;7.266;2022-10-17T14:25:28;6.03;;;3.53;;
1446;SDS011;717;51.522;7.266;2022-10-17T14:28:00;8.48;;;3.53;;
1446;SDS011;717;51.522;7.266;2022-10-17T14:30:35;7.05;;;3.63;;
1446;SDS011;717;51.522;7.266;2022-10-17T14:33:05;5.60;;;3.25;;
1446;SDS011;717;51.522;7.266;2022-10-17T14:35:33;6.38;;;3.60;;
1446;SDS011;717;51.522;7.266;2022-10-17T14:38:02;3.90;;;3.22;;
1446;SDS011;717;51.522;7.266;2022-10-17T14:40:31;5.63;;;3.53;;
1446;SDS011;717;51.522;7.266;2022-10-17T14:43:01;5.75;;;3.80;;
1446;SDS011;717;51.522;7.266;2022-10-17T14:45:30;5.05;;;3.33;;
1446;SDS011;717;51.522;7.266;2022-10-17T14:48:02;5.63;;;3.65;;
1446;SDS011;717;51.522;7.266;2022-10-17T14:50:32;6.82;;;3.78;;
1446;SDS011;717;51.522;7.266;2022-10-17T14:53:01;4.95;;;3.42;;
1446;SDS011;717;51.522;7.266;2022-10-17T14:55:31;4.47;;;3.75;;
1446;SDS011;717;51.522;7.266;2022-10-17T14:58:00;5.28;;;3.78;;
1446;SDS011;717;51.522;7.266;2022-10-17T15:00:27;3.80;;;3.40;;
1446;SDS011;717;51.522;7.266;2022-10-17T15:02:54;5.97;;;3.67;;
1446;SDS011;717;51.522;7.266;2022-10-17T15:05:23;4.88;;;3.42;;
1446;SDS011;717;51.522;7.266;2022-10-17T15:07:50;7.88;;;4.22;;
1446;SDS011;717;51.522;7.266;2022-10-17T15:10:24;4.80;;;4.07;;
1446;SDS011;717;51.522;7.266;2022-10-17T15:12:55;6.57;;;3.60;;
1446;SDS011;717;51.522;7.266;2022-10-17T15:15:24;5.03;;;3.30;;
1446;SDS011;717;51.522;7.266;2022-10-17T15:17:51;6.35;;;3.88;;
1446;SDS011;717;51.522;7.266;2022-10-17T15:20:18;5.75;;;4.20;;
1446;SDS011;717;51.522;7.266;2022-10-17T15:22:46;4.95;;;3.30;;
1446;SDS011;717;51.522;7.266;2022-10-17T15:25:13;6.35;;;3.47;;
1446;SDS011;717;51.522;7.266;2022-10-17T15:27:40;6.70;;;3.17;;
1446;SDS011;717;51.522;7.266;2022-10-17T15:30:14;5.88;;;3.30;;
1446;SDS011;717;51.522;7.266;2022-10-17T15:32:43;6.30;;;3.47;;
1446;SDS011;717;51.522;7.266;2022-10-17T15:35:10;4.88;;;3.22;;
1446;SDS011;717;51.522;7.266;2022-10-17T15:37:37;4.47;;;2.90;;
1446;SDS011;717;51.522;7.266;2022-10-17T15:40:08;5.95;;;3.47;;
1446;SDS011;717;51.522;7.266;2022-10-17T15:42:39;4.57;;;3.67;;
1446;SDS011;717;51.522;7.266;2022-10-17T15:45:08;6.07;;;3.72;;
1446;SDS011;717;51.522;7.266;2022-10-17T15:47:36;6.75;;;3.22;;
1446;SDS011;717;51.522;7.266;2022-10-17T15:50:04;6.50;;;3.53;;
1446;SDS011;717;51.522;7.266;2022-10-17T15:52:33;6.07;;;3.83;;
1446;SDS011;717;51.522;7.266;2022-10-17T15:55:01;5.95;;;3.40;;
1446;SDS011;717;51.522;7.266;2022-10-17T15:57:30;6.50;;;3.45;;
1446;SDS011;717;51.522;7.266;2022-10-17T16:00:03;5.47;;;3.70;;
1446;SDS011;717;51.522;7.266;2022-10-17T16:02:31;7.63;;;3.92;;
1446;SDS011;717;51.522;7.266;2022-10-17T16:04:58;5.25;;;3.80;;
1446;SDS011;717;51.522;7.266;2022-10-17T16:07:25;4.38;;;3.95;;